Aeroporto :
LOGIN :

Iscrizione | Disclaimer

   EN    FR    IT 

 










Sommario :    VFR   VFR Marginale   IFR   IFR Intensivo   IFR Molto Intensivo
Visibilità : 
Base nubi : 
>= 8 km
>= 3000ft
5 / 8 km
1000 / 3000 ft
1500m / 5 km
500 / 1000 ft
800 / 1500m
200 / 500 ft
< 800m
< 200 ft
Simboli :   Temporali  Nebbia  Neve Forte  Precipitazioni Forti  Vento > 20 kt
SIGMETs :   Varie  Temporali  Ghiacco  Turbolenza  Onda orograficha  Ceneri Vulcaniche






- Altitudine del aeroporto : 375 ft
- Codice IATA : MST


EHBK - Maastricht Aachen

ULTIMO METAR :
  • 141255Z AUTO 23018KT 9999 SCT026/// BKN029/// OVC034/// 08/03 Q0994 TEMPO 7000 RA

METARs OBSOLETI :
  • 141225Z AUTO 23016KT 200V260 9999 FEW034 07/03 Q0994 NOSIG
  • 141155Z AUTO 23015KT 210V270 9999 NSC 07/02 Q0994 NOSIG
  • 141125Z AUTO 24015KT 210V290 9999 FEW044 07/01 Q0993 NOSIG
  • 141055Z AUTO 24015KT 210V290 9999 NSC 07/02 Q0993 NOSIG
  • 141025Z AUTO 25014G27KT 190V290 9999 FEW026 07/03 Q0992 NOSIG

TAF TAF EHBK
Valido dal 14 a 12 ore il 15 a 18 ore UTC


141123Z 1412/1518 24017G29KT 9999 SCT030
PROB40
TEMPO 1413/1417 24023G37KT 6000 RA SHRA BKN012 SCT020CB
BECMG 1418/1421 21012KT
BECMG 1503/1506 24017KT
PROB40
TEMPO 1504/1507 24025G35KT 4000 SHRA RA SCT012CB BKN015
BECMG 1515/1518 21012KT



MetMap, La meteo Aeronautica in un colpo d'occhio ! - Copyright ORBIFLY Dicembre 2007 - Disclaimer

ORBIFLY MET'MAP TEAM :

Programmazione e sviluppo : Alexandra Zaïnal
Concezione : Baudouin d'Aumeries
Aiuto per la programmazione : Marc-Olivier Méhu
Supporto tecnico e logistico : Manuel Goepfert
Aiuto per la traduzione : Arnaldo La Scala

Contatto : metmap@orbifly.com




FONTI E CREDITI :

   NOAA